Latest Weather Observations for Richmond

IDQ60801

Issued at 2:05 pm EST Thursday 23 October 2014 (issued every 30 minutes, with the page automatically refreshed every 10 minutes)

About weather observations | Map of weather stations | Latest weather observations for QLD | Other Formats
Station Details ID: 030161 Name: RICHMOND AIRPORT Lat: -20.70 Lon: 143.12 Height: 206.3 m
Data from the previous 72 hours. | See also: Recent months at Richmond
Date/Time
EST
Temp
°C
App
Temp
°C
Dew
Point
Rel
Hum
%
Delta-T
°C
Wind Press
QNH
hPa
Press
MSL
hPa
Rain
since 9 am
mm
Dir
 
Spd
km/h
Gust
km/h
Spd
kts
Gust
kts
23/02:00pm 34.7 27.0 3.3 14 16.5 E 33 46 18 25 1014.3 1013.1 0.0
23/01:50pm 34.4 26.8 4.0 15 16.1 E 33 52 18 28 1014.6 1013.3 0.0
23/01:40pm 35.5 26.9 4.9 15 16.5 ESE 39 50 21 27 1014.8 1013.5 0.0
23/01:35pm 34.4 29.1 5.0 16 15.8 E 22 32 12 17 1014.8 1013.5 0.0
23/01:30pm 35.2 25.8 4.7 15 16.4 SE 43 54 23 29 1014.8 1013.5 0.0
23/01:29pm 34.8 24.8 4.4 15 16.2 SE 46 54 25 29 1014.8 1013.5 0.0
23/01:12pm 34.0 26.7 5.5 17 15.4 E 33 54 18 29 1015.2 1013.9 0.0
23/01:00pm 34.2 27.0 5.7 17 15.5 E 33 50 18 27 1015.4 1014.1 0.0
23/12:30pm 34.1 27.6 6.4 18 15.2 E 30 50 16 27 1016.0 1014.7 0.0
23/12:12pm 33.6 27.2 6.8 19 14.8 E 30 48 16 26 1016.4 1015.1 0.0
23/12:00pm 33.0 26.5 6.3 19 14.5 E 30 43 16 23 1016.7 1015.4 0.0
23/11:30am 32.1 26.2 7.7 22 13.5 E 28 43 15 23 1017.3 1016.1 0.0
23/11:00am 31.9 26.2 8.2 23 13.2 ESE 28 37 15 20 1017.8 1016.6 0.0
23/10:30am 31.2 27.1 8.8 25 12.6 NE 20 33 11 18 1018.5 1017.3 0.0
23/10:00am 30.2 26.1 10.2 29 11.4 E 22 33 12 18 1018.8 1017.6 0.0
23/09:30am 28.1 24.5 9.9 32 10.3 NE 19 30 10 16 1019.1 1017.9 0.0
23/09:00am 27.8 24.4 10.5 34 9.8 NE 19 28 10 15 1019.2 1018.0 0.0
23/08:30am 26.2 22.6 10.4 37 8.9 NE 20 28 11 15 1019.2 1018.0 0.0
23/08:00am 25.2 22.3 11.0 41 8.0 ENE 17 22 9 12 1018.9 1017.7 0.0
23/07:30am 23.6 20.7 11.0 45 7.1 NE 17 26 9 14 1018.7 1017.5 0.0
23/07:00am 22.1 20.8 9.9 46 6.7 ENE 7 13 4 7 1018.4 1017.2 0.0
23/06:30am 20.4 18.6 9.6 50 5.8 NE 9 11 5 6 1018.1 1016.9 0.0
23/06:00am 19.7 17.5 9.3 51 5.5 NE 11 13 6 7 1017.6 1016.4 0.0
23/05:30am 20.1 17.8 9.1 49 5.9 NE 11 13 6 7 1017.4 1016.2 0.0
23/05:00am 20.5 17.8 8.8 47 6.2 NE 13 17 7 9 1017.2 1015.9 0.0
23/04:30am 21.6 18.6 9.2 45 6.7 NE 15 22 8 12 1017.0 1015.7 0.0
23/04:00am 21.9 18.4 8.8 43 7.0 NE 17 22 9 12 1016.9 1015.6 0.0
23/03:30am 22.3 18.4 8.8 42 7.2 NE 19 26 10 14 1016.7 1015.4 0.0
23/03:00am 22.1 18.6 8.9 43 7.1 NE 17 22 9 12 1016.5 1015.2 0.0
23/02:30am 22.0 18.8 8.5 42 7.2 NNE 15 19 8 10 1016.4 1015.1 0.0
23/02:00am 22.2 19.0 5.2 33 8.5 NE 11 15 6 8 1016.8 1015.5 0.0
23/01:30am 22.1 18.2 1.2 25 9.7 NE 11 13 6 7 1017.0 1015.7 0.0
23/01:00am 21.7 16.8 -0.3 23 9.9 E 15 19 8 10 1017.2 1015.9 0.0
23/12:30am 21.0 16.7 -1.5 22 9.8 E 11 11 6 6 1017.3 1016.1 0.0
23/12:00am 21.9 18.1 -0.8 22 10.1 E 9 13 5 7 1017.5 1016.3 0.0
 
Date/Time
EST
Temp
°C
App
Temp
°C
Dew
Point
Rel
Hum
%
Delta-T
°C
Wind Press
QNH
hPa
Press
MSL
hPa
Rain
since 9 am
mm
Dir
 
Spd
km/h
Gust
km/h
Spd
kts
Gust
kts
22/11:30pm 22.7 18.1 -0.7 21 10.5 E 13 15 7 8 1017.5 1016.3 0.0
22/11:00pm 24.0 18.7 -0.3 20 11.1 ESE 17 19 9 10 1017.3 1016.1 0.0
22/10:30pm 24.9 19.6 -0.3 19 11.6 ESE 17 19 9 10 1017.3 1016.1 0.0
22/10:00pm 26.3 20.5 0.1 18 12.3 ESE 20 26 11 14 1017.1 1015.8 0.0
22/09:30pm 27.3 21.5 0.1 17 12.9 ESE 20 26 11 14 1016.8 1015.5 0.0
22/09:00pm 28.0 22.1 1.5 18 12.9 ESE 22 28 12 15 1016.3 1015.0 0.0
22/08:30pm 28.9 23.2 0.6 16 13.7 ESE 20 28 11 15 1016.0 1014.7 0.0
22/08:00pm 29.1 23.6 0.7 16 13.8 ESE 19 24 10 13 1015.7 1014.4 0.0
22/07:30pm 30.3 24.6 0.8 15 14.4 ESE 20 24 11 13 1015.3 1014.0 0.0
22/07:00pm 31.0 24.7 1.4 15 14.7 ESE 24 30 13 16 1014.9 1013.6 0.0
22/06:30pm 31.9 25.1 1.1 14 15.3 E 26 35 14 19 1014.5 1013.2 0.0
22/06:00pm 32.9 25.0 0.9 13 16.0 ESE 32 39 17 21 1014.2 1013.0 0.0
22/05:30pm 34.0 26.6 1.7 13 16.4 E 30 39 16 21 1014.1 1012.9 0.0
22/05:00pm 34.4 27.8 2.0 13 16.6 E 26 35 14 19 1014.0 1012.8 0.0
22/04:30pm 34.4 27.8 2.0 13 16.6 E 26 35 14 19 1013.9 1012.7 0.0
22/04:00pm 35.0 28.7 1.4 12 17.1 E 24 39 13 21 1013.9 1012.7 0.0
22/03:30pm 35.4 29.1 3.8 14 16.8 ESE 26 37 14 20 1014.1 1012.9 0.0
22/03:00pm 35.0 28.5 4.5 15 16.3 ESE 28 35 15 19 1014.5 1013.2 0.0
22/02:30pm 34.5 28.6 4.1 15 16.1 SE 24 35 13 19 1014.9 1013.6 0.0
22/02:00pm 33.5 27.6 5.9 18 15.0 E 26 39 14 21 1015.6 1014.3 0.0
22/01:30pm 33.8 27.8 5.4 17 15.3 E 26 39 14 21 1016.2 1014.9 0.0
22/01:00pm 34.2 27.9 7.3 19 15.0 E 30 43 16 23 1016.6 1015.3 0.0
22/12:30pm 31.8 25.4 6.8 21 13.7 E 30 44 16 24 1017.3 1016.1 0.0
22/12:00pm 31.8 26.3 6.1 20 13.9 ENE 24 39 13 21 1017.8 1016.6 0.0
22/11:30am 30.6 24.9 5.1 20 13.5 ENE 24 43 13 23 1018.3 1017.1 0.0
22/11:00am 31.0 24.8 6.1 21 13.4 ENE 28 46 15 25 1018.9 1017.7 0.0
22/10:30am 29.0 22.9 6.4 24 12.1 ENE 28 41 15 22 1019.6 1018.3 0.0
22/10:09am 28.3 21.9 5.2 23 12.0 ENE 28 54 15 29 1019.8 1018.5 0.0
22/10:00am 28.3 21.6 5.8 24 11.8 E 30 46 16 25 1019.9 1018.6 0.0
22/09:30am 27.7 22.8 8.6 30 10.5 ENE 24 41 13 22 1020.1 1018.8 0.0
22/09:12am 26.3 20.6 8.3 32 9.8 ENE 28 50 15 27 1020.1 1018.8 0.0
22/09:00am 26.9 23.1 9.7 34 9.6 ENE 20 32 11 17 1020.3 1019.0 0.0
22/08:30am 24.4 19.5 8.4 36 8.6 ENE 24 35 13 19 1020.5 1019.2 0.0
22/08:00am 23.9 19.6 9.5 40 7.9 ENE 22 39 12 21 1020.3 1019.0 0.0
22/07:30am 22.9 18.8 11.3 48 6.5 ENE 24 33 13 18 1020.0 1018.7 0.0
22/07:00am 22.3 19.7 12.0 52 5.8 ENE 17 30 9 16 1019.9 1018.6 0.0
22/06:30am 20.9 20.1 11.8 56 5.1 ENE 7 11 4 6 1019.4 1018.2 0.0
22/06:00am 20.6 19.5 11.8 57 4.9 ENE 9 17 5 9 1019.1 1017.9 0.0
22/05:30am 20.9 19.2 11.3 54 5.4 NE 11 15 6 8 1018.8 1017.6 0.0
22/05:00am 21.7 18.9 11.4 52 5.8 NE 17 22 9 12 1018.5 1017.3 0.0
22/04:30am 22.2 19.4 11.3 50 6.1 ENE 17 28 9 15 1018.1 1016.9 0.0
22/04:00am 22.6 19.1 11.0 48 6.5 NE 20 37 11 20 1017.9 1016.7 0.0
22/03:30am 22.9 19.4 10.3 45 7.0 ENE 19 28 10 15 1017.7 1016.5 0.0
22/03:00am 23.3 18.9 10.4 44 7.2 NE 24 35 13 19 1017.4 1016.2 0.0
22/02:30am 23.2 20.2 9.2 41 7.6 NE 15 22 8 12 1017.1 1015.8 0.0
22/02:00am 23.7 20.1 6.9 34 8.8 NE 15 20 8 11 1017.3 1016.1 0.0
22/01:30am 24.5 20.6 7.2 33 9.1 ENE 17 26 9 14 1017.4 1016.2 0.0
22/01:00am 24.9 21.0 7.1 32 9.4 E 17 20 9 11 1017.5 1016.3 0.0
22/12:30am 25.5 21.5 6.7 30 9.9 E 17 24 9 13 1017.7 1016.5 0.0
22/12:00am 25.7 21.4 6.8 30 10.0 E 19 24 10 13 1017.9 1016.7 0.0
 
Date/Time
EST
Temp
°C
App
Temp
°C
Dew
Point
Rel
Hum
%
Delta-T
°C
Wind Press
QNH
hPa
Press
MSL
hPa
Rain
since 9 am
mm
Dir
 
Spd
km/h
Gust
km/h
Spd
kts
Gust
kts
21/11:30pm 25.4 20.9 6.1 29 10.1 E 19 24 10 13 1018.1 1016.9 0.0
21/11:00pm 25.7 20.8 5.3 27 10.5 E 20 24 11 13 1018.2 1017.0 0.0
21/10:30pm 26.0 21.1 5.0 26 10.8 ESE 20 28 11 15 1018.2 1017.0 0.0
21/10:00pm 26.7 20.7 5.1 25 11.1 ESE 26 35 14 19 1018.0 1016.8 0.0
21/09:30pm 27.0 21.1 4.1 23 11.6 ESE 24 30 13 16 1017.8 1016.6 0.0
21/09:00pm 27.9 21.6 3.6 21 12.3 ESE 26 33 14 18 1017.4 1016.2 0.0
21/08:30pm 28.6 22.6 3.5 20 12.7 ESE 24 32 13 17 1017.1 1015.8 0.0
21/08:00pm 29.5 23.4 2.7 18 13.5 ESE 24 32 13 17 1016.6 1015.3 0.0
21/07:30pm 30.0 23.8 2.3 17 13.9 ESE 24 30 13 16 1016.3 1015.0 0.0
21/07:00pm 30.2 24.5 0.7 15 14.4 ESE 20 30 11 16 1015.9 1014.6 0.0
21/06:30pm 31.4 25.0 0.7 14 15.1 ESE 24 30 13 16 1015.6 1014.3 0.0
21/06:00pm 32.5 25.8 1.6 14 15.5 E 26 35 14 19 1015.3 1014.0 0.0
21/05:30pm 33.2 26.1 1.1 13 16.1 E 28 37 15 20 1015.1 1013.8 0.0
21/05:00pm 33.7 26.6 1.5 13 16.3 ESE 28 37 15 20 1014.9 1013.6 0.0
21/04:30pm 34.6 28.6 1.1 12 16.9 ENE 22 35 12 19 1014.8 1013.5 0.0
21/04:00pm 33.9 26.7 0.5 12 16.7 ESE 28 39 15 21 1014.9 1013.6 0.0
21/03:30pm 33.4 26.5 0.1 12 16.5 E 26 43 14 23 1015.1 1013.8 0.0
21/03:00pm 33.5 27.0 0.2 12 16.5 E 24 37 13 20 1015.3 1014.0 0.0
21/02:30pm 34.0 28.3 0.6 12 16.7 E 20 43 11 23 1015.6 1014.3 0.0
21/02:00pm 34.0 27.5 0.6 12 16.7 ESE 24 37 13 20 1016.1 1014.8 0.0
21/01:30pm 33.0 25.5 0.9 13 16.0 E 30 43 16 23 1016.8 1015.5 0.0
21/01:08pm 32.7 25.7 1.7 14 15.7 E 28 46 15 25 1017.3 1016.1 0.0
21/01:00pm 32.7 24.7 1.7 14 15.6 ESE 33 43 18 23 1017.5 1016.3 0.0
21/12:42pm 32.1 25.1 2.2 15 15.2 ENE 28 48 15 26 1018.0 1016.8 0.0
21/12:30pm 31.4 24.3 3.4 17 14.4 E 30 43 16 23 1018.3 1017.1 0.0
21/12:02pm 31.1 24.6 4.8 19 13.8 E 28 46 15 25 1018.9 1017.7 0.0
21/12:00pm 30.9 24.8 4.6 19 13.8 E 26 46 14 25 1019.0 1017.8 0.0
21/11:56am 30.8 24.1 3.8 18 14.0 E 28 46 15 25 1019.0 1017.8 0.0
21/11:30am 30.2 22.6 4.0 19 13.5 E 33 48 18 26 1019.4 1018.2 0.0
21/11:00am 30.6 23.1 3.6 18 13.9 E 32 50 17 27 1019.8 1018.5 0.0
21/10:59am 30.4 22.8 2.6 17 14.0 E 32 50 17 27 1019.9 1018.6 0.0
21/10:30am 30.0 22.9 1.5 16 14.1 E 28 43 15 23 1020.0 1018.7 0.0
21/10:10am 29.6 22.6 4.3 20 13.1 E 30 48 16 26 1020.3 1019.0 0.0
21/10:00am 28.7 21.3 4.2 21 12.6 E 32 46 17 25 1020.5 1019.2 0.0
21/09:55am 28.6 22.1 4.8 22 12.4 E 28 46 15 25 1020.5 1019.2 0.0
21/09:30am 28.2 22.7 5.7 24 11.8 E 24 33 13 18 1020.8 1019.5 0.0
21/09:00am 27.4 22.3 6.2 26 11.2 NE 22 32 12 17 1020.9 1019.6 0.0
21/08:30am 25.7 20.8 6.8 30 10.0 NE 22 32 12 17 1020.8 1019.5 0.0
21/08:00am 25.0 20.0 8.1 34 9.1 NE 24 35 13 19 1020.6 1019.3 0.0
21/07:30am 24.0 19.6 8.8 38 8.2 NE 22 32 12 17 1020.1 1018.8 0.0
21/07:00am 23.1 19.3 9.8 43 7.3 NE 20 32 11 17 1019.8 1018.5 0.0
21/06:30am 22.1 18.6 10.3 47 6.5 NE 19 28 10 15 1019.0 1017.8 0.0
21/06:00am 21.4 18.8 10.6 50 5.9 ENE 15 24 8 13 1018.8 1017.6 0.0
21/05:30am 21.2 18.7 11.0 52 5.7 NE 15 24 8 13 1018.3 1017.1 0.0
21/05:00am 21.4 18.9 11.1 52 5.7 NE 15 20 8 11 1017.9 1016.7 0.0
21/04:30am 21.6 19.0 10.7 50 6.0 NE 15 20 8 11 1017.7 1016.5 0.0
21/04:00am 22.1 19.0 10.3 47 6.5 NE 17 24 9 13 1017.5 1016.3 0.0
21/03:30am 22.4 19.3 8.9 42 7.3 ENE 15 20 8 11 1017.3 1016.1 0.0
21/03:00am 22.0 18.1 5.4 34 8.3 ENE 15 22 8 12 1017.0 1015.7 0.0
21/02:30am 21.4 17.2 3.6 31 8.6 E 15 20 8 11 1016.8 1015.5 0.0
21/02:00am 22.5 18.3 3.6 29 9.2 E 15 22 8 12 1016.9 1015.6 0.0
21/01:30am 22.2 17.1 2.8 28 9.3 E 19 20 10 11 1017.1 1015.8 0.0
21/01:00am 21.2 16.0 2.5 29 8.8 E 19 20 10 11 1017.3 1016.1 0.0
21/12:30am 21.8 16.6 2.5 28 9.2 ESE 19 20 10 11 1017.5 1016.3 0.0
21/12:00am 22.8 17.7 2.8 27 9.6 ESE 19 19 10 10 1017.8 1016.6 0.0
 
Date/Time
EST
Temp
°C
App
Temp
°C
Dew
Point
Rel
Hum
%
Delta-T
°C
Wind Press
QNH
hPa
Press
MSL
hPa
Rain
since 9 am
mm
Dir
 
Spd
km/h
Gust
km/h
Spd
kts
Gust
kts
20/11:30pm 24.1 19.0 2.9 25 10.3 E 19 22 10 12 1017.9 1016.7 0.0
20/11:00pm 25.0 19.9 3.0 24 10.8 E 19 24 10 13 1017.9 1016.7 0.0
20/10:30pm 25.8 19.8 3.1 23 11.2 E 24 28 13 15 1018.1 1016.9 0.0
20/10:00pm 26.7 20.3 3.2 22 11.7 ESE 26 33 14 18 1018.0 1016.8 0.0
20/09:30pm 27.2 20.3 2.3 20 12.3 ESE 28 37 15 20 1017.7 1016.5 0.0
20/09:00pm 28.2 20.9 2.4 19 12.8 ESE 30 39 16 21 1017.3 1016.1 0.0
20/08:30pm 28.3 21.4 0.1 16 13.5 ESE 26 35 14 19 1016.9 1015.6 0.0
20/08:00pm 28.9 22.3 -0.3 15 13.9 ESE 24 32 13 17 1016.6 1015.3 0.0
20/07:30pm 28.8 22.5 -1.3 14 14.1 SE 22 26 12 14 1016.3 1015.0 0.0
20/07:00pm 29.6 23.6 -1.7 13 14.6 ESE 20 26 11 14 1015.8 1014.5 0.0
20/06:30pm 31.3 24.5 -1.5 12 15.6 ESE 24 32 13 17 1015.5 1014.2 0.0
20/06:00pm 32.5 26.3 -3.0 10 16.5 ESE 20 30 11 16 1015.1 1013.8 0.0
20/05:30pm 33.2 25.4 -3.9 9 17.1 ESE 28 35 15 19 1014.8 1013.5 0.0
20/05:00pm 33.8 25.9 -5.0 8 17.7 ESE 28 37 15 20 1014.6 1013.3 0.0
20/04:30pm 34.0 27.4 -3.3 9 17.5 E 22 32 12 17 1014.3 1013.1 0.0
20/04:00pm 34.6 29.4 -0.1 11 17.2 E 17 33 9 18 1014.5 1013.2 0.0
20/03:30pm 34.8 28.3 0.0 11 17.3 ESE 24 35 13 19 1014.3 1013.1 0.0
20/03:00pm 33.7 27.6 0.4 12 16.6 E 22 35 12 19 1014.7 1013.4 0.0
20/02:30pm 33.9 27.4 0.5 12 16.7 E 24 41 13 22 1015.2 1013.9 0.0

Other Formats:

Comma delimited format used in spreadsheet applications
http://www.bom.gov.au/fwo/IDQ60801/IDQ60801.94341.axf

JavaScript Object Notation format (JSON) in row-major order
http://www.bom.gov.au/fwo/IDQ60801/IDQ60801.94341.json